createdAt,value
2023-11-19T00:00:53.202Z,96050.75
2023-11-19T00:01:59.079Z,96045.59
2023-11-19T00:03:04.339Z,96054.00
2023-11-19T00:04:06.615Z,96047.94
2023-11-19T00:05:14.579Z,96048.06
2023-11-19T00:06:18.107Z,96045.47
2023-11-19T00:07:30.483Z,96048.88
2023-11-19T00:08:37.256Z,96050.53
2023-11-19T00:09:42.177Z,96043.66
2023-11-19T00:10:44.414Z,96037.59
2023-11-19T00:12:54.188Z,96046.97
2023-11-19T00:13:58.984Z,96048.63
2023-11-19T00:15:03.957Z,96046.91
2023-11-19T00:16:08.848Z,96053.69
2023-11-19T00:17:13.795Z,96046.63
2023-11-19T00:18:16.045Z,96037.94
2023-11-19T00:19:20.976Z,96036.00
2023-11-19T00:20:23.404Z,96046.13
2023-11-19T00:21:29.898Z,96039.16
2023-11-19T00:22:33.055Z,96040.72
2023-11-19T00:23:37.938Z,96044.88
2023-11-19T00:24:40.469Z,96037.03
2023-11-19T00:25:45.696Z,96037.53
2023-11-19T00:26:48.123Z,96025.34
2023-11-19T00:27:54.833Z,96029.47
2023-11-19T00:28:57.490Z,96020.75
2023-11-19T00:30:02.409Z,96018.09
2023-11-19T00:31:07.435Z,96017.13
2023-11-19T00:32:13.009Z,96006.00
2023-11-19T00:33:15.270Z,96014.50
2023-11-19T00:34:22.666Z,96008.44
2023-11-19T00:35:25.026Z,96013.59
2023-11-19T00:36:29.790Z,96004.97
2023-11-19T00:37:32.011Z,96011.63
2023-11-19T00:38:37.165Z,96014.09
2023-11-19T00:39:39.452Z,96004.50
2023-11-19T00:40:45.536Z,96010.25
2023-11-19T00:41:47.716Z,96010.25
2023-11-19T00:42:52.874Z,96004.41
2023-11-19T00:43:55.108Z,96014.59
2023-11-19T00:44:59.887Z,96012.06
2023-11-19T00:46:02.258Z,96018.84
2023-11-19T00:47:09.778Z,96015.41
2023-11-19T00:48:12.037Z,96014.34
2023-11-19T00:49:17.021Z,96022.75
2023-11-19T00:50:19.843Z,96016.88
2023-11-19T00:51:24.682Z,96015.88
2023-11-19T00:52:27.224Z,96019.25
2023-11-19T00:53:33.395Z,96010.63
2023-11-19T00:54:35.541Z,96007.97
2023-11-19T00:56:46.041Z,96014.59
2023-11-19T00:57:50.889Z,96009.34
2023-11-19T00:58:53.048Z,96011.06
2023-11-19T00:59:57.829Z,96019.47
2023-11-19T01:01:01.190Z,96020.25
2023-11-19T01:02:07.682Z,96006.47
2023-11-19T01:03:13.259Z,96008.00
2023-11-19T01:04:18.623Z,96021.56
2023-11-19T01:05:23.169Z,96010.34
2023-11-19T01:06:31.423Z,96014.72
2023-11-19T01:07:33.593Z,96012.91
2023-11-19T01:08:39.084Z,96012.91
2023-11-19T01:09:43.181Z,96006.09
2023-11-19T01:10:49.066Z,96003.50
2023-11-19T01:11:51.187Z,96000.94
2023-11-19T01:12:55.985Z,96006.88
2023-11-19T01:13:58.140Z,96004.28
2023-11-19T01:15:02.341Z,96011.13
2023-11-19T01:16:08.455Z,96004.16
2023-11-19T01:17:10.684Z,96002.13
2023-11-19T01:18:18.073Z,96003.84
2023-11-19T01:19:20.500Z,96003.84
2023-11-19T01:20:25.437Z,95993.59
2023-11-19T01:21:27.660Z,95996.16
2023-11-19T01:22:32.521Z,95994.56
2023-11-19T01:23:35.537Z,96005.41
2023-11-19T01:24:40.218Z,95985.59
2023-11-19T01:25:42.471Z,96001.13
2023-11-19T01:26:46.733Z,96000.28
2023-11-19T01:27:51.686Z,96001.78
2023-11-19T01:28:54.363Z,95994.88
2023-11-19T01:29:59.074Z,96005.31
2023-11-19T01:31:01.228Z,95984.44
2023-11-19T01:32:06.011Z,95980.69
2023-11-19T01:33:09.035Z,95990.75
2023-11-19T01:34:16.783Z,95982.97
2023-11-19T01:35:18.918Z,95985.59
2023-11-19T01:36:23.860Z,95985.41
2023-11-19T01:37:26.034Z,95981.84
2023-11-19T01:38:32.146Z,95980.75
2023-11-19T01:39:36.751Z,95973.97
2023-11-19T01:40:41.566Z,95966.94
2023-11-19T01:41:43.920Z,95977.22
2023-11-19T01:42:50.803Z,95979.00
2023-11-19T01:43:53.384Z,95975.72
2023-11-19T01:45:02.647Z,95974.91
2023-11-19T01:46:07.317Z,95975.78
2023-11-19T01:47:12.885Z,95973.19
2023-11-19T01:48:17.270Z,95970.56
2023-11-19T01:49:24.843Z,95968.81
2023-11-19T01:50:27.811Z,95970.47
2023-11-19T01:51:32.937Z,95966.22
2023-11-19T01:52:37.991Z,95966.09
2023-11-19T01:53:44.416Z,95967.91
2023-11-19T01:54:46.674Z,95967.91
2023-11-19T01:55:53.690Z,95973.06
2023-11-19T01:56:58.457Z,95971.97
2023-11-19T01:58:08.769Z,95980.50
2023-11-19T01:59:14.388Z,95970.84
2023-11-19T02:00:20.510Z,95963.75
2023-11-19T02:01:23.408Z,95957.69
2023-11-19T02:02:29.227Z,95966.47
2023-11-19T02:03:34.203Z,95970.03
2023-11-19T02:04:42.462Z,95968.09
2023-11-19T02:05:44.731Z,95970.84
2023-11-19T02:06:53.853Z,95977.50
2023-11-19T02:07:56.064Z,95979.94
2023-11-19T02:09:00.776Z,95951.63
2023-11-19T02:10:04.348Z,95965.31
2023-11-19T02:11:10.609Z,95972.94
2023-11-19T02:12:13.095Z,95970.34
2023-11-19T02:13:15.419Z,95968.66
2023-11-19T02:14:21.257Z,95969.50
2023-11-19T02:15:25.629Z,95968.50
2023-11-19T02:16:31.139Z,95969.44
2023-11-19T02:17:33.621Z,95968.66
2023-11-19T02:18:38.301Z,95972.00
2023-11-19T02:19:43.020Z,95964.13
2023-11-19T02:20:45.126Z,95970.34
2023-11-19T02:21:50.353Z,95969.38
2023-11-19T02:22:52.490Z,95970.34
2023-11-19T02:24:08.936Z,95961.63
2023-11-19T02:25:18.513Z,95964.25
2023-11-19T02:26:32.415Z,95969.22
2023-11-19T02:27:57.219Z,95965.19
2023-11-19T02:29:04.139Z,95961.53
2023-11-19T02:30:09.907Z,95953.88
2023-11-19T02:31:15.741Z,95955.69
2023-11-19T02:32:18.301Z,95956.38
2023-11-19T02:33:20.578Z,95957.16
2023-11-19T02:34:27.140Z,95960.66
2023-11-19T02:35:32.267Z,95957.34
2023-11-19T02:36:36.978Z,95955.25
2023-11-19T02:37:40.392Z,95961.47
2023-11-19T02:38:45.127Z,95961.41
2023-11-19T02:39:47.282Z,95950.09
2023-11-19T02:40:52.104Z,95956.50
2023-11-19T02:41:54.667Z,95950.38
2023-11-19T02:43:02.165Z,95957.97
2023-11-19T02:44:06.687Z,95948.34
2023-11-19T02:45:15.651Z,95944.38
2023-11-19T02:46:18.784Z,95959.78
2023-11-19T02:47:25.313Z,95947.84
2023-11-19T02:48:27.464Z,95959.88
2023-11-19T02:49:32.198Z,95958.19
2023-11-19T02:50:34.441Z,95947.72
2023-11-19T02:51:39.838Z,95953.94
2023-11-19T02:52:42.109Z,95958.19
2023-11-19T02:53:49.761Z,95952.91
2023-11-19T02:54:52.078Z,95963.22
2023-11-19T02:56:02.447Z,95952.69
2023-11-19T02:57:06.040Z,95959.78
2023-11-19T02:58:21.619Z,95951.34
2023-11-19T02:59:28.712Z,95944.50
2023-11-19T03:00:38.118Z,95952.97
2023-11-19T03:01:45.123Z,95947.09
2023-11-19T03:02:59.719Z,95951.28
2023-11-19T03:04:04.353Z,95953.88
2023-11-19T03:05:10.199Z,95961.53
2023-11-19T03:06:12.791Z,95956.47
2023-11-19T03:07:19.115Z,95955.34
2023-11-19T03:08:24.045Z,95950.94
2023-11-19T03:09:30.384Z,95940.72
2023-11-19T03:10:32.717Z,95950.31
2023-11-19T03:11:37.582Z,95946.97
2023-11-19T03:12:40.060Z,95937.31
2023-11-19T03:13:48.045Z,95950.38
2023-11-19T03:14:52.045Z,95947.72
2023-11-19T03:15:56.967Z,95943.31
2023-11-19T03:16:59.194Z,95948.56
2023-11-19T03:18:04.080Z,95958.06
2023-11-19T03:19:06.356Z,95947.59
2023-11-19T03:20:16.444Z,95951.78
2023-11-19T03:21:18.782Z,95950.94
2023-11-19T03:22:23.535Z,95958.06
2023-11-19T03:23:26.294Z,95952.63
2023-11-19T03:24:31.098Z,95948.44
2023-11-19T03:25:35.102Z,95950.94
2023-11-19T03:26:40.506Z,95947.59
2023-11-19T03:27:43.177Z,95950.94
2023-11-19T03:28:50.481Z,95951.84
2023-11-19T03:29:52.731Z,95952.47
2023-11-19T03:30:57.852Z,95952.75
2023-11-19T03:32:00.065Z,95949.13
2023-11-19T03:33:05.214Z,95947.50
2023-11-19T03:34:07.491Z,95957.66
2023-11-19T03:35:10.714Z,95955.22
2023-11-19T03:36:15.625Z,95965.59
2023-11-19T03:37:18.830Z,95963.94
2023-11-19T03:38:23.663Z,95953.50
2023-11-19T03:39:26.491Z,95951.78
2023-11-19T03:40:29.208Z,95953.31
2023-11-19T03:42:40.969Z,95969.38
2023-11-19T03:43:46.458Z,95965.25
2023-11-19T03:44:51.187Z,95953.25
2023-11-19T03:45:56.082Z,95947.31
2023-11-19T03:46:58.312Z,95939.72
2023-11-19T03:48:03.127Z,95937.13
2023-11-19T03:49:05.962Z,95938.00
2023-11-19T03:50:12.065Z,95926.78
2023-11-19T03:51:16.533Z,95932.94
2023-11-19T03:52:20.754Z,95927.69
2023-11-19T03:53:26.020Z,95932.16
2023-11-19T03:54:29.151Z,95928.66
2023-11-19T03:55:34.221Z,95924.34
2023-11-19T03:56:36.442Z,95921.91
2023-11-19T03:57:38.571Z,95916.78
2023-11-19T03:58:44.374Z,95913.25
2023-11-19T03:59:46.490Z,95922.78
2023-11-19T04:00:53.914Z,95921.03
2023-11-19T04:01:57.889Z,95928.72
2023-11-19T04:03:02.702Z,95929.66
2023-11-19T04:04:05.532Z,95926.34
2023-11-19T04:05:08.543Z,95916.84
2023-11-19T04:06:13.298Z,95917.75
2023-11-19T04:07:15.437Z,95910.00
2023-11-19T04:08:20.872Z,95906.50
2023-11-19T04:09:23.083Z,95898.84
2023-11-19T04:10:28.894Z,95904.84
2023-11-19T04:11:34.218Z,95904.16
2023-11-19T04:12:39.607Z,95899.00
2023-11-19T04:13:41.847Z,95905.00
2023-11-19T04:14:46.674Z,95898.16
2023-11-19T04:15:51.656Z,95904.06
2023-11-19T04:16:56.721Z,95897.94
2023-11-19T04:17:58.881Z,95902.25
2023-11-19T04:19:01.070Z,95904.84
2023-11-19T04:20:07.138Z,95913.28
2023-11-19T04:21:09.473Z,95903.72
2023-11-19T04:22:14.259Z,95907.94
2023-11-19T04:23:16.391Z,95908.06
2023-11-19T04:24:21.065Z,95905.41
2023-11-19T04:25:23.276Z,95915.63
2023-11-19T04:26:28.179Z,95900.13
2023-11-19T04:27:32.136Z,95895.94
2023-11-19T04:28:36.859Z,95889.00
2023-11-19T04:29:39.006Z,95893.94
2023-11-19T04:30:43.721Z,95894.97
2023-11-19T04:31:48.562Z,95895.00
2023-11-19T04:32:53.388Z,95897.59
2023-11-19T04:33:56.716Z,95896.63
2023-11-19T04:35:01.576Z,95905.00
2023-11-19T04:36:04.111Z,95911.00
2023-11-19T04:38:14.157Z,95904.28
2023-11-19T04:39:20.232Z,95905.84
2023-11-19T04:40:24.176Z,95902.19
2023-11-19T04:41:29.099Z,95898.44
2023-11-19T04:42:31.211Z,95909.84
2023-11-19T04:43:36.194Z,95903.75
2023-11-19T04:44:38.610Z,95896.63
2023-11-19T04:45:43.399Z,95895.78
2023-11-19T04:46:48.401Z,95893.25
2023-11-19T04:47:53.255Z,95901.50
2023-11-19T04:48:55.550Z,95903.31
2023-11-19T04:49:57.665Z,95893.75
2023-11-19T04:51:02.544Z,95905.75
2023-11-19T04:52:05.918Z,95895.13
2023-11-19T04:53:08.032Z,95901.06
2023-11-19T04:54:13.267Z,95887.84
2023-11-19T04:55:15.939Z,95897.31
2023-11-19T04:56:21.133Z,95897.31
2023-11-19T04:57:23.243Z,95897.97
2023-11-19T04:58:28.229Z,95917.69
2023-11-19T04:59:30.483Z,95907.50
2023-11-19T05:00:35.237Z,95911.69
2023-11-19T05:01:37.457Z,95912.53
2023-11-19T05:02:44.988Z,95910.84
2023-11-19T05:03:47.162Z,95905.78
2023-11-19T05:04:52.051Z,95907.50
2023-11-19T05:05:54.950Z,95910.72
2023-11-19T05:06:59.788Z,95913.44
2023-11-19T05:08:02.693Z,95912.53
2023-11-19T05:09:09.131Z,95918.31
2023-11-19T05:10:11.562Z,95915.72
2023-11-19T05:11:19.352Z,95919.06
2023-11-19T05:12:21.496Z,95913.88
2023-11-19T05:13:23.975Z,95907.06
2023-11-19T05:14:29.161Z,95907.00
2023-11-19T05:15:31.316Z,95909.50
2023-11-19T05:16:36.576Z,95911.78
2023-11-19T05:17:41.595Z,95905.56
2023-11-19T05:18:44.478Z,95901.44
2023-11-19T05:19:49.959Z,95913.38
2023-11-19T05:20:52.107Z,95903.81
2023-11-19T05:21:56.823Z,95907.31
2023-11-19T05:23:01.594Z,95907.31
2023-11-19T05:24:08.559Z,95908.00
2023-11-19T05:25:11.928Z,95920.16
2023-11-19T05:26:22.504Z,95905.47
2023-11-19T05:27:25.204Z,95909.97
2023-11-19T05:28:30.068Z,95919.28
2023-11-19T05:29:32.189Z,95924.19
2023-11-19T05:30:37.001Z,95921.56
2023-11-19T05:31:39.920Z,95928.53
2023-11-19T05:32:44.815Z,95929.38
2023-11-19T05:33:49.668Z,95931.06
2023-11-19T05:34:52.763Z,95925.91
2023-11-19T05:35:58.380Z,95919.75
2023-11-19T05:37:03.008Z,95919.03
2023-11-19T05:38:07.820Z,95918.97
2023-11-19T05:39:09.976Z,95916.53
2023-11-19T05:40:16.792Z,95920.00
2023-11-19T05:41:19.078Z,95916.53
2023-11-19T05:42:24.936Z,95920.00
2023-11-19T05:43:27.025Z,95918.19
2023-11-19T05:44:31.754Z,95918.03
2023-11-19T05:45:34.068Z,95919.75
2023-11-19T05:46:41.878Z,95924.75
2023-11-19T05:47:46.709Z,95919.75
2023-11-19T05:48:52.490Z,95921.41
2023-11-19T05:49:54.885Z,95919.50
2023-11-19T05:50:59.804Z,95924.53
2023-11-19T05:52:04.493Z,95926.44
2023-11-19T05:53:11.612Z,95921.09
2023-11-19T05:54:14.813Z,95932.13
2023-11-19T05:55:20.658Z,95924.63
2023-11-19T05:56:23.188Z,95920.34
2023-11-19T05:57:28.830Z,95928.09
2023-11-19T05:58:31.740Z,95919.59
2023-11-19T05:59:38.168Z,95929.78
2023-11-19T06:00:40.384Z,95924.69
2023-11-19T06:01:45.832Z,95929.94
2023-11-19T06:02:50.626Z,95932.38
2023-11-19T06:03:56.029Z,95922.78
2023-11-19T06:04:58.106Z,95927.94
2023-11-19T06:06:02.822Z,95931.44
2023-11-19T06:07:06.509Z,95932.13
2023-11-19T06:08:11.264Z,95929.63
2023-11-19T06:09:14.643Z,95931.31
2023-11-19T06:10:21.752Z,95937.16
2023-11-19T06:11:23.921Z,95927.66
2023-11-19T06:12:29.021Z,95925.81
2023-11-19T06:13:32.688Z,95918.94
2023-11-19T06:14:37.485Z,95915.19
2023-11-19T06:15:39.853Z,95908.47
2023-11-19T06:16:45.298Z,95915.19
2023-11-19T06:17:50.152Z,95912.63
2023-11-19T06:18:55.196Z,95912.63
2023-11-19T06:19:57.330Z,95910.69
2023-11-19T06:21:02.137Z,95914.13
2023-11-19T06:22:04.702Z,95912.16
2023-11-19T06:23:09.427Z,95911.38
2023-11-19T06:24:11.588Z,95909.72
2023-11-19T06:25:17.140Z,95904.69
2023-11-19T06:26:19.615Z,95903.94
2023-11-19T06:27:25.999Z,95909.88
2023-11-19T06:28:28.206Z,95910.47
2023-11-19T06:29:32.933Z,95903.47
2023-11-19T06:30:35.058Z,95906.22
2023-11-19T06:31:39.861Z,95913.97
2023-11-19T06:32:42.008Z,95916.56
2023-11-19T06:33:50.317Z,95915.72
2023-11-19T06:34:52.468Z,95906.22
2023-11-19T06:35:57.223Z,95915.56
2023-11-19T06:36:59.385Z,95917.94
2023-11-19T06:38:04.094Z,95911.16
2023-11-19T06:39:07.269Z,95915.34
2023-11-19T06:40:13.565Z,95913.59
2023-11-19T06:41:15.776Z,95910.91
2023-11-19T06:42:21.206Z,95913.59
2023-11-19T06:43:23.321Z,95914.28
2023-11-19T06:44:28.461Z,95912.63
2023-11-19T06:45:30.599Z,95915.94
2023-11-19T06:46:35.318Z,95915.94
2023-11-19T06:47:37.514Z,95914.06
2023-11-19T06:48:44.269Z,95916.66
2023-11-19T06:49:49.005Z,95928.59
2023-11-19T06:50:53.693Z,95927.53
2023-11-19T06:51:55.836Z,95918.16
2023-11-19T06:53:00.634Z,95931.81
2023-11-19T06:54:02.795Z,95929.13
2023-11-19T06:55:09.781Z,95922.19
2023-11-19T06:56:20.055Z,95936.06
2023-11-19T06:57:25.093Z,95938.56
2023-11-19T06:58:27.183Z,95948.69
2023-11-19T06:59:32.195Z,95935.97
2023-11-19T07:00:34.431Z,95939.09
2023-11-19T07:01:40.066Z,95946.03
2023-11-19T07:02:42.331Z,95941.59
2023-11-19T07:03:45.548Z,95939.16
2023-11-19T07:04:52.900Z,95940.91
2023-11-19T07:05:57.080Z,95941.84
2023-11-19T07:07:01.782Z,95929.56
2023-11-19T07:08:04.283Z,95935.44
2023-11-19T07:09:13.152Z,95934.53
2023-11-19T07:10:15.310Z,95938.75
2023-11-19T07:11:20.566Z,95939.72
2023-11-19T07:12:22.695Z,95942.31
2023-11-19T07:13:24.806Z,95938.81
2023-11-19T07:14:30.024Z,95944.00
2023-11-19T07:15:32.137Z,95944.00
2023-11-19T07:16:35.629Z,95939.66
2023-11-19T07:17:42.734Z,95943.84
2023-11-19T07:18:45.521Z,95940.31
2023-11-19T07:19:53.994Z,95952.53
2023-11-19T07:20:56.425Z,95955.84
2023-11-19T07:22:01.094Z,95962.72
2023-11-19T07:23:03.964Z,95959.22
2023-11-19T07:24:09.982Z,95955.56
2023-11-19T07:25:12.159Z,95955.56
2023-11-19T07:26:14.297Z,95959.75
2023-11-19T07:27:19.759Z,95949.47
2023-11-19T07:28:21.904Z,95955.47
2023-11-19T07:29:30.344Z,95963.19
2023-11-19T07:30:32.792Z,95960.59
2023-11-19T07:31:38.445Z,95955.41
2023-11-19T07:32:40.697Z,95955.41
2023-11-19T07:33:45.941Z,95962.25
2023-11-19T07:34:50.741Z,95967.38
2023-11-19T07:35:55.773Z,95963.94
2023-11-19T07:37:00.754Z,95961.22
2023-11-19T07:38:05.523Z,95976.03
2023-11-19T07:39:07.664Z,95975.00
2023-11-19T07:40:14.159Z,95963.03
2023-11-19T07:41:17.205Z,95971.63
2023-11-19T07:42:24.235Z,95967.28
2023-11-19T07:43:26.401Z,95971.47
2023-11-19T07:44:31.137Z,95975.66
2023-11-19T07:45:33.359Z,95974.84
2023-11-19T07:46:38.142Z,95973.91
2023-11-19T07:47:40.368Z,95979.19
2023-11-19T07:48:45.773Z,95981.78
2023-11-19T07:49:51.404Z,95962.78
2023-11-19T07:50:57.311Z,95967.06
2023-11-19T07:51:59.785Z,95961.63
2023-11-19T07:53:05.942Z,95956.44
2023-11-19T07:54:08.462Z,95966.81
2023-11-19T07:55:13.190Z,95965.09
2023-11-19T07:56:15.440Z,95976.28
2023-11-19T07:57:20.403Z,95961.50
2023-11-19T07:58:22.544Z,95957.22
2023-11-19T07:59:27.479Z,95964.00
2023-11-19T08:00:29.656Z,95970.00
2023-11-19T08:01:34.435Z,95975.28
2023-11-19T08:02:36.716Z,95975.03
2023-11-19T08:03:39.199Z,95969.84
2023-11-19T08:04:47.263Z,95984.41
2023-11-19T08:05:52.299Z,95979.31
2023-11-19T08:06:58.007Z,95971.53
2023-11-19T08:08:00.430Z,95980.22
2023-11-19T08:09:04.993Z,95984.50
2023-11-19T08:10:11.314Z,95986.09
2023-11-19T08:11:13.631Z,95976.41
2023-11-19T08:12:18.900Z,95988.44
2023-11-19T08:13:21.944Z,95986.53
2023-11-19T08:14:26.809Z,95987.53
2023-11-19T08:15:32.455Z,95978.78
2023-11-19T08:16:39.084Z,95976.06
2023-11-19T08:17:41.429Z,95976.75
2023-11-19T08:18:47.448Z,95975.75
2023-11-19T08:19:49.631Z,95977.59
2023-11-19T08:20:57.821Z,95977.44
2023-11-19T08:21:59.979Z,95991.75
2023-11-19T08:23:07.478Z,95979.88
2023-11-19T08:24:09.752Z,95970.19
2023-11-19T08:25:14.657Z,95967.75
2023-11-19T08:26:19.511Z,95971.94
2023-11-19T08:27:28.213Z,95973.44
2023-11-19T08:28:30.676Z,95980.31
2023-11-19T08:29:35.714Z,95981.16
2023-11-19T08:30:37.881Z,95976.63
2023-11-19T08:31:42.600Z,95981.81
2023-11-19T08:32:44.826Z,95985.06
2023-11-19T08:33:49.653Z,95972.97
2023-11-19T08:34:51.828Z,95972.97
2023-11-19T08:35:56.578Z,95975.31
2023-11-19T08:37:01.407Z,95976.56
2023-11-19T08:38:03.583Z,95980.03
2023-11-19T08:39:09.900Z,95971.16
2023-11-19T08:40:13.551Z,95966.03
2023-11-19T08:41:20.650Z,95970.16
2023-11-19T08:42:23.212Z,95964.97
2023-11-19T08:43:28.013Z,95969.56
2023-11-19T08:44:30.147Z,95968.47
2023-11-19T08:45:35.049Z,95970.16
2023-11-19T08:46:37.271Z,95965.66
2023-11-19T08:47:42.259Z,95953.50
2023-11-19T08:48:44.525Z,95957.84
2023-11-19T08:50:03.533Z,95964.78
2023-11-19T08:51:09.237Z,95962.00
2023-11-19T08:52:14.158Z,95966.97
2023-11-19T08:53:16.603Z,95965.84
2023-11-19T08:54:22.672Z,95966.28
2023-11-19T08:55:24.861Z,95965.25
2023-11-19T08:56:34.040Z,95956.00
2023-11-19T08:57:36.286Z,95941.34
2023-11-19T08:58:41.218Z,95957.41
2023-11-19T08:59:43.446Z,95948.03
2023-11-19T09:00:48.228Z,95952.38
2023-11-19T09:01:50.545Z,95960.06
2023-11-19T09:02:55.520Z,95962.53
2023-11-19T09:03:58.932Z,95963.44
2023-11-19T09:05:01.176Z,95966.53
2023-11-19T09:06:05.958Z,95967.19
2023-11-19T09:07:11.056Z,95973.56
2023-11-19T09:08:15.977Z,95976.94
2023-11-19T09:09:18.219Z,95973.69
2023-11-19T09:10:22.957Z,95982.28
2023-11-19T09:11:25.378Z,95984.88
2023-11-19T09:12:30.184Z,95981.34
2023-11-19T09:13:32.326Z,95981.34
2023-11-19T09:14:37.223Z,95986.56
2023-11-19T09:15:39.468Z,95990.56
2023-11-19T09:16:44.321Z,95977.19
2023-11-19T09:17:47.024Z,95986.06
2023-11-19T09:18:51.895Z,95994.44
2023-11-19T09:19:54.096Z,96000.69
2023-11-19T09:20:58.839Z,95993.91
2023-11-19T09:22:01.002Z,95992.09
2023-11-19T09:23:11.011Z,95988.91
2023-11-19T09:24:16.361Z,95989.91
2023-11-19T09:25:21.901Z,95996.78
2023-11-19T09:26:24.098Z,95987.97
2023-11-19T09:27:28.906Z,95994.75
2023-11-19T09:28:31.058Z,95991.09
2023-11-19T09:29:36.371Z,95991.41
2023-11-19T09:30:38.613Z,95975.97
2023-11-19T09:31:43.531Z,95980.31
2023-11-19T09:32:45.781Z,95989.97
2023-11-19T09:33:50.814Z,95990.59
2023-11-19T09:34:53.088Z,95990.88
2023-11-19T09:35:59.050Z,95993.03
2023-11-19T09:37:01.249Z,95988.94
2023-11-19T09:38:09.003Z,95984.50
2023-11-19T09:39:11.259Z,95987.47
2023-11-19T09:40:16.278Z,95980.06
2023-11-19T09:41:20.831Z,95992.94
2023-11-19T09:42:25.677Z,95975.13
2023-11-19T09:43:29.707Z,95973.78
2023-11-19T09:44:34.717Z,95984.38
2023-11-19T09:45:49.095Z,95973.50
2023-11-19T09:46:53.975Z,95969.03
2023-11-19T09:47:59.084Z,95970.88
2023-11-19T09:49:05.099Z,95974.38
2023-11-19T09:50:10.649Z,95971.25
2023-11-19T09:51:13.392Z,95969.38
2023-11-19T09:52:18.570Z,95972.69
2023-11-19T09:53:23.320Z,95962.69
2023-11-19T09:54:28.163Z,95960.22
2023-11-19T09:55:30.309Z,95961.28
2023-11-19T09:56:36.503Z,95971.09
2023-11-19T09:57:40.715Z,95971.09
2023-11-19T09:58:45.820Z,95964.25
2023-11-19T09:59:48.878Z,95966.06
2023-11-19T10:01:20.107Z,95960.81
2023-11-19T10:02:18.505Z,95958.69
2023-11-19T10:03:23.570Z,95963.06
2023-11-19T10:04:27.082Z,95963.88
2023-11-19T10:05:32.130Z,95971.25
2023-11-19T10:06:34.566Z,95969.44
2023-11-19T10:07:39.457Z,95974.97
2023-11-19T10:08:45.652Z,95980.78
2023-11-19T10:09:51.039Z,95984.31
2023-11-19T10:10:53.408Z,95976.75
2023-11-19T10:11:58.201Z,95983.03
2023-11-19T10:13:01.845Z,95981.34
2023-11-19T10:14:06.720Z,95983.03
2023-11-19T10:15:21.165Z,95979.44
2023-11-19T10:16:33.218Z,95981.00
2023-11-19T10:17:36.235Z,95978.81
2023-11-19T10:18:42.454Z,95973.69
2023-11-19T10:19:44.681Z,95970.19
2023-11-19T10:20:49.691Z,95973.78
2023-11-19T10:21:51.889Z,95965.47
2023-11-19T10:22:57.736Z,95970.19
2023-11-19T10:24:02.536Z,95965.84
2023-11-19T10:25:08.208Z,95961.19
2023-11-19T10:26:11.465Z,95958.69
2023-11-19T10:27:16.955Z,95966.69
2023-11-19T10:28:20.112Z,95962.03
2023-11-19T10:29:24.994Z,95954.59
2023-11-19T10:30:29.186Z,95959.97
2023-11-19T10:31:33.987Z,95957.75
2023-11-19T10:32:36.248Z,95962.88
2023-11-19T10:33:41.144Z,95958.50
2023-11-19T10:34:44.327Z,95956.09
2023-11-19T10:37:02.982Z,95946.25
2023-11-19T10:38:19.081Z,95939.19
2023-11-19T10:39:25.111Z,95938.66
2023-11-19T10:40:42.256Z,95922.72
2023-11-19T10:41:44.447Z,95925.59
2023-11-19T10:42:49.219Z,95918.38
2023-11-19T10:43:51.415Z,95916.84
2023-11-19T10:44:53.655Z,95921.28
2023-11-19T10:46:12.621Z,95919.16
2023-11-19T10:47:16.325Z,95919.16
2023-11-19T10:48:22.862Z,95925.66
2023-11-19T10:49:25.085Z,95910.31
2023-11-19T10:50:27.415Z,95913.94
2023-11-19T10:51:33.429Z,95918.88
2023-11-19T10:52:36.808Z,95922.47
2023-11-19T10:53:42.458Z,95917.00
2023-11-19T10:54:51.164Z,95907.94
2023-11-19T10:55:59.732Z,95912.03
2023-11-19T10:57:03.515Z,95905.00
2023-11-19T10:58:10.521Z,95904.88
2023-11-19T11:00:22.713Z,95910.97
2023-11-19T11:01:32.108Z,95913.44
2023-11-19T11:02:41.759Z,95913.72
2023-11-19T11:03:48.636Z,95917.97
2023-11-19T11:04:52.091Z,95911.09
2023-11-19T11:05:57.779Z,95908.78
2023-11-19T11:07:03.503Z,95911.91
2023-11-19T11:08:08.245Z,95915.81
2023-11-19T11:09:16.587Z,95903.91
2023-11-19T11:10:23.732Z,95919.00
2023-11-19T11:11:28.593Z,95915.97
2023-11-19T11:12:35.386Z,95915.97
2023-11-19T11:13:45.695Z,95902.34
2023-11-19T11:14:48.226Z,95903.56
2023-11-19T11:15:55.166Z,95903.28
2023-11-19T11:16:59.551Z,95899.97
2023-11-19T11:18:05.875Z,95889.19
2023-11-19T11:19:08.274Z,95900.03
2023-11-19T11:20:14.827Z,95903.88
2023-11-19T11:21:21.824Z,95900.50
2023-11-19T11:23:49.726Z,95905.34
2023-11-19T11:25:18.319Z,95879.50
2023-11-19T11:26:41.304Z,95889.31
2023-11-19T11:28:08.478Z,95885.09
2023-11-19T11:29:17.657Z,95882.75
2023-11-19T11:30:35.916Z,95880.84
2023-11-19T11:31:46.305Z,95873.53
2023-11-19T11:32:59.088Z,95872.19
2023-11-19T11:34:17.030Z,95872.78
2023-11-19T11:35:33.472Z,95881.50
2023-11-19T11:36:48.222Z,95883.44
2023-11-19T11:38:00.127Z,95891.47
2023-11-19T11:39:09.124Z,95891.47
2023-11-19T11:40:17.269Z,95876.72
2023-11-19T11:41:30.508Z,95881.72
2023-11-19T11:42:36.524Z,95879.47
2023-11-19T11:43:51.733Z,95883.78
2023-11-19T11:45:03.878Z,95894.63
2023-11-19T11:46:10.741Z,95891.38
2023-11-19T11:47:12.966Z,95887.19
2023-11-19T11:48:21.081Z,95888.97
2023-11-19T11:49:31.290Z,95899.91
2023-11-19T11:50:37.003Z,95890.97
2023-11-19T11:52:07.395Z,95898.66
2023-11-19T11:53:17.303Z,95897.81
2023-11-19T11:54:32.022Z,95905.81
2023-11-19T11:55:37.719Z,95901.13
2023-11-19T11:56:45.301Z,95899.53
2023-11-19T11:57:48.869Z,95913.16
2023-11-19T11:58:53.704Z,95907.53
2023-11-19T11:59:56.427Z,95892.94
2023-11-19T12:00:59.780Z,95907.03
2023-11-19T12:02:04.575Z,95905.47
2023-11-19T12:03:08.517Z,95899.25
2023-11-19T12:04:14.298Z,95907.44
2023-11-19T12:05:16.739Z,95901.19
2023-11-19T12:06:25.441Z,95902.28
2023-11-19T12:07:27.539Z,95910.31
2023-11-19T12:08:31.647Z,95899.97
2023-11-19T12:09:37.155Z,95897.84
2023-11-19T12:10:46.577Z,95892.63
2023-11-19T12:12:11.675Z,95877.94
2023-11-19T12:13:14.245Z,95875.06
2023-11-19T12:14:19.103Z,95879.94
2023-11-19T12:15:26.342Z,95878.88
2023-11-19T12:16:32.330Z,95871.34
2023-11-19T12:17:51.144Z,95872.91
2023-11-19T12:18:58.027Z,95878.66
2023-11-19T12:20:01.395Z,95874.38
2023-11-19T12:21:03.794Z,95863.47
2023-11-19T12:22:14.915Z,95867.94
2023-11-19T12:23:17.057Z,95855.19
2023-11-19T12:24:24.043Z,95855.34
2023-11-19T12:25:26.585Z,95853.47
2023-11-19T12:26:36.306Z,95859.75
2023-11-19T12:27:45.407Z,95854.38
2023-11-19T12:28:59.010Z,95843.88
2023-11-19T12:30:01.180Z,95844.59
2023-11-19T12:31:13.252Z,95846.66
2023-11-19T12:32:15.819Z,95855.34
2023-11-19T12:33:21.167Z,95847.88
2023-11-19T12:34:25.908Z,95849.38
2023-11-19T12:35:30.863Z,95849.44
2023-11-19T12:36:33.103Z,95852.78
2023-11-19T12:37:36.693Z,95849.34
2023-11-19T12:38:42.382Z,95851.56
2023-11-19T12:39:47.510Z,95849.22
2023-11-19T12:41:06.881Z,95847.78
2023-11-19T12:42:09.154Z,95841.44
2023-11-19T12:43:25.606Z,95843.72
2023-11-19T12:44:27.784Z,95836.28
2023-11-19T12:45:40.160Z,95833.50
2023-11-19T12:46:42.391Z,95830.44
2023-11-19T12:47:49.123Z,95836.94
2023-11-19T12:48:52.443Z,95832.16
2023-11-19T12:49:57.664Z,95836.88
2023-11-19T12:51:02.900Z,95832.16
2023-11-19T12:52:14.024Z,95844.34
2023-11-19T12:53:19.634Z,95842.28